sensor_id;sensor_type;location;lat;lon;timestamp;P1;durP1;ratioP1;P2;durP2;ratioP2
13799;SDS011;6971;50.028;9.258;2022-12-16T00:01:33;20.20;;;11.33;;
13799;SDS011;6971;50.028;9.258;2022-12-16T00:06:34;16.83;;;10.73;;
13799;SDS011;6971;50.028;9.258;2022-12-16T00:11:35;16.80;;;11.27;;
13799;SDS011;6971;50.028;9.258;2022-12-16T00:16:36;17.23;;;10.20;;
13799;SDS011;6971;50.028;9.258;2022-12-16T00:21:37;14.17;;;9.17;;
13799;SDS011;6971;50.028;9.258;2022-12-16T00:26:37;14.50;;;8.90;;
13799;SDS011;6971;50.028;9.258;2022-12-16T00:31:38;12.83;;;8.93;;
13799;SDS011;6971;50.028;9.258;2022-12-16T00:36:39;13.40;;;7.67;;
13799;SDS011;6971;50.028;9.258;2022-12-16T00:41:40;11.33;;;8.10;;
13799;SDS011;6971;50.028;9.258;2022-12-16T00:46:41;15.87;;;9.97;;
13799;SDS011;6971;50.028;9.258;2022-12-16T00:51:42;17.37;;;10.50;;
13799;SDS011;6971;50.028;9.258;2022-12-16T00:56:43;21.20;;;12.50;;
13799;SDS011;6971;50.028;9.258;2022-12-16T01:01:44;14.70;;;9.70;;
13799;SDS011;6971;50.028;9.258;2022-12-16T01:06:45;22.17;;;13.00;;
13799;SDS011;6971;50.028;9.258;2022-12-16T01:11:46;20.77;;;12.50;;
13799;SDS011;6971;50.028;9.258;2022-12-16T01:16:47;18.40;;;11.20;;
13799;SDS011;6971;50.028;9.258;2022-12-16T01:21:48;16.50;;;10.97;;
13799;SDS011;6971;50.028;9.258;2022-12-16T01:26:51;17.47;;;10.87;;
13799;SDS011;6971;50.028;9.258;2022-12-16T01:31:52;15.40;;;9.60;;
13799;SDS011;6971;50.028;9.258;2022-12-16T01:37:16;21.37;;;12.30;;
13799;SDS011;6971;50.028;9.258;2022-12-16T01:42:18;23.17;;;12.90;;
13799;SDS011;6971;50.028;9.258;2022-12-16T01:47:25;20.63;;;12.17;;
13799;SDS011;6971;50.028;9.258;2022-12-16T01:52:32;23.40;;;12.67;;
13799;SDS011;6971;50.028;9.258;2022-12-16T01:57:37;24.33;;;12.03;;
13799;SDS011;6971;50.028;9.258;2022-12-16T02:02:45;22.70;;;14.20;;
13799;SDS011;6971;50.028;9.258;2022-12-16T02:13:09;20.67;;;12.93;;
13799;SDS011;6971;50.028;9.258;2022-12-16T02:34:54;21.80;;;12.33;;
13799;SDS011;6971;50.028;9.258;2022-12-16T02:40:03;22.33;;;12.57;;
13799;SDS011;6971;50.028;9.258;2022-12-16T02:45:14;19.73;;;11.60;;
13799;SDS011;6971;50.028;9.258;2022-12-16T02:50:21;25.17;;;12.80;;
13799;SDS011;6971;50.028;9.258;2022-12-16T02:55:29;24.47;;;13.60;;
13799;SDS011;6971;50.028;9.258;2022-12-16T03:06:22;23.40;;;13.43;;
13799;SDS011;6971;50.028;9.258;2022-12-16T03:11:24;22.40;;;12.97;;
13799;SDS011;6971;50.028;9.258;2022-12-16T03:16:29;22.90;;;13.23;;
13799;SDS011;6971;50.028;9.258;2022-12-16T03:21:33;26.17;;;15.63;;
13799;SDS011;6971;50.028;9.258;2022-12-16T03:26:42;25.77;;;13.67;;
13799;SDS011;6971;50.028;9.258;2022-12-16T03:31:54;21.43;;;13.33;;
13799;SDS011;6971;50.028;9.258;2022-12-16T03:37:04;28.00;;;15.00;;
13799;SDS011;6971;50.028;9.258;2022-12-16T03:42:07;25.27;;;14.63;;
13799;SDS011;6971;50.028;9.258;2022-12-16T03:47:09;27.13;;;14.30;;
13799;SDS011;6971;50.028;9.258;2022-12-16T03:52:10;25.40;;;13.50;;
13799;SDS011;6971;50.028;9.258;2022-12-16T03:57:11;24.93;;;14.13;;
13799;SDS011;6971;50.028;9.258;2022-12-16T04:02:12;22.27;;;14.10;;
13799;SDS011;6971;50.028;9.258;2022-12-16T04:07:25;23.20;;;13.67;;
13799;SDS011;6971;50.028;9.258;2022-12-16T04:12:26;23.37;;;12.53;;
13799;SDS011;6971;50.028;9.258;2022-12-16T04:17:45;23.30;;;11.97;;
13799;SDS011;6971;50.028;9.258;2022-12-16T04:23:04;22.17;;;13.40;;
13799;SDS011;6971;50.028;9.258;2022-12-16T04:28:24;25.47;;;13.43;;
13799;SDS011;6971;50.028;9.258;2022-12-16T04:33:25;18.30;;;12.00;;
13799;SDS011;6971;50.028;9.258;2022-12-16T04:38:44;22.80;;;13.40;;
13799;SDS011;6971;50.028;9.258;2022-12-16T04:44:04;20.63;;;11.57;;
13799;SDS011;6971;50.028;9.258;2022-12-16T04:49:23;18.90;;;10.90;;
13799;SDS011;6971;50.028;9.258;2022-12-16T04:54:43;18.10;;;10.60;;
13799;SDS011;6971;50.028;9.258;2022-12-16T05:00:02;19.63;;;11.30;;
13799;SDS011;6971;50.028;9.258;2022-12-16T05:05:22;18.70;;;11.10;;
13799;SDS011;6971;50.028;9.258;2022-12-16T05:10:41;21.43;;;11.50;;
13799;SDS011;6971;50.028;9.258;2022-12-16T05:16:00;21.80;;;11.40;;
13799;SDS011;6971;50.028;9.258;2022-12-16T05:21:20;19.90;;;10.77;;
13799;SDS011;6971;50.028;9.258;2022-12-16T05:26:40;19.73;;;11.07;;
13799;SDS011;6971;50.028;9.258;2022-12-16T05:31:59;20.67;;;10.87;;
13799;SDS011;6971;50.028;9.258;2022-12-16T05:37:19;18.13;;;10.90;;
13799;SDS011;6971;50.028;9.258;2022-12-16T05:42:38;17.43;;;10.90;;
13799;SDS011;6971;50.028;9.258;2022-12-16T05:47:58;18.63;;;11.33;;
13799;SDS011;6971;50.028;9.258;2022-12-16T05:53:18;19.67;;;10.53;;
13799;SDS011;6971;50.028;9.258;2022-12-16T05:58:37;44.30;;;26.27;;
13799;SDS011;6971;50.028;9.258;2022-12-16T06:03:57;20.70;;;11.13;;
13799;SDS011;6971;50.028;9.258;2022-12-16T06:09:17;20.87;;;12.57;;
13799;SDS011;6971;50.028;9.258;2022-12-16T06:14:43;37.67;;;20.87;;
13799;SDS011;6971;50.028;9.258;2022-12-16T06:20:02;20.70;;;12.13;;
13799;SDS011;6971;50.028;9.258;2022-12-16T06:25:22;20.60;;;12.37;;
13799;SDS011;6971;50.028;9.258;2022-12-16T06:30:41;17.90;;;10.67;;
13799;SDS011;6971;50.028;9.258;2022-12-16T06:36:01;22.10;;;11.77;;
13799;SDS011;6971;50.028;9.258;2022-12-16T06:41:20;103.30;;;41.70;;
13799;SDS011;6971;50.028;9.258;2022-12-16T06:46:39;22.03;;;12.43;;
13799;SDS011;6971;50.028;9.258;2022-12-16T06:51:58;22.33;;;12.47;;
13799;SDS011;6971;50.028;9.258;2022-12-16T06:57:18;21.43;;;11.20;;
13799;SDS011;6971;50.028;9.258;2022-12-16T07:02:37;18.00;;;10.47;;
13799;SDS011;6971;50.028;9.258;2022-12-16T07:07:56;21.57;;;12.30;;
13799;SDS011;6971;50.028;9.258;2022-12-16T07:13:15;25.17;;;12.57;;
13799;SDS011;6971;50.028;9.258;2022-12-16T07:18:35;19.97;;;11.17;;
13799;SDS011;6971;50.028;9.258;2022-12-16T07:23:54;22.03;;;11.20;;
13799;SDS011;6971;50.028;9.258;2022-12-16T07:29:14;21.07;;;11.93;;
13799;SDS011;6971;50.028;9.258;2022-12-16T07:34:33;22.90;;;11.50;;
13799;SDS011;6971;50.028;9.258;2022-12-16T07:39:53;23.03;;;12.80;;
13799;SDS011;6971;50.028;9.258;2022-12-16T07:45:12;22.30;;;11.47;;
13799;SDS011;6971;50.028;9.258;2022-12-16T07:50:31;25.37;;;11.73;;
13799;SDS011;6971;50.028;9.258;2022-12-16T07:55:50;21.63;;;11.50;;
13799;SDS011;6971;50.028;9.258;2022-12-16T08:01:10;22.93;;;12.13;;
13799;SDS011;6971;50.028;9.258;2022-12-16T08:06:29;21.77;;;13.03;;
13799;SDS011;6971;50.028;9.258;2022-12-16T08:11:48;20.53;;;11.30;;
13799;SDS011;6971;50.028;9.258;2022-12-16T08:17:08;23.20;;;14.30;;
13799;SDS011;6971;50.028;9.258;2022-12-16T08:22:28;27.10;;;12.57;;
13799;SDS011;6971;50.028;9.258;2022-12-16T08:27:52;31.17;;;14.80;;
13799;SDS011;6971;50.028;9.258;2022-12-16T08:33:12;25.77;;;14.47;;
13799;SDS011;6971;50.028;9.258;2022-12-16T08:38:32;31.67;;;16.77;;
13799;SDS011;6971;50.028;9.258;2022-12-16T08:43:51;45.20;;;25.33;;
13799;SDS011;6971;50.028;9.258;2022-12-16T08:49:10;38.77;;;23.37;;
13799;SDS011;6971;50.028;9.258;2022-12-16T08:54:29;38.57;;;25.20;;
13799;SDS011;6971;50.028;9.258;2022-12-16T08:59:50;38.07;;;22.27;;
13799;SDS011;6971;50.028;9.258;2022-12-16T09:05:09;33.43;;;18.97;;
13799;SDS011;6971;50.028;9.258;2022-12-16T09:10:28;39.20;;;19.90;;
13799;SDS011;6971;50.028;9.258;2022-12-16T09:15:47;38.27;;;23.40;;
13799;SDS011;6971;50.028;9.258;2022-12-16T09:21:07;39.93;;;23.50;;
13799;SDS011;6971;50.028;9.258;2022-12-16T09:26:27;36.93;;;26.13;;
13799;SDS011;6971;50.028;9.258;2022-12-16T09:31:47;39.17;;;24.50;;
13799;SDS011;6971;50.028;9.258;2022-12-16T09:37:06;43.20;;;27.03;;
13799;SDS011;6971;50.028;9.258;2022-12-16T09:42:29;36.73;;;23.33;;
13799;SDS011;6971;50.028;9.258;2022-12-16T09:48:23;26.07;;;17.50;;
13799;SDS011;6971;50.028;9.258;2022-12-16T09:53:46;28.73;;;18.03;;
13799;SDS011;6971;50.028;9.258;2022-12-16T09:59:11;27.67;;;16.70;;
13799;SDS011;6971;50.028;9.258;2022-12-16T10:04:33;27.53;;;17.53;;
13799;SDS011;6971;50.028;9.258;2022-12-16T10:21:00;24.40;;;17.13;;
13799;SDS011;6971;50.028;9.258;2022-12-16T10:26:33;26.40;;;16.87;;
13799;SDS011;6971;50.028;9.258;2022-12-16T10:32:24;26.43;;;16.43;;
13799;SDS011;6971;50.028;9.258;2022-12-16T10:37:55;22.57;;;16.00;;
13799;SDS011;6971;50.028;9.258;2022-12-16T10:43:25;38.60;;;23.33;;
13799;SDS011;6971;50.028;9.258;2022-12-16T10:48:52;30.90;;;19.97;;
13799;SDS011;6971;50.028;9.258;2022-12-16T10:54:27;31.07;;;19.10;;
13799;SDS011;6971;50.028;9.258;2022-12-16T10:59:46;25.70;;;18.70;;
13799;SDS011;6971;50.028;9.258;2022-12-16T11:10:46;27.57;;;19.03;;
13799;SDS011;6971;50.028;9.258;2022-12-16T11:16:07;32.83;;;20.77;;
13799;SDS011;6971;50.028;9.258;2022-12-16T11:21:29;34.13;;;20.30;;
13799;SDS011;6971;50.028;9.258;2022-12-16T11:26:52;34.57;;;22.70;;
13799;SDS011;6971;50.028;9.258;2022-12-16T11:32:17;36.80;;;23.00;;
13799;SDS011;6971;50.028;9.258;2022-12-16T11:37:40;32.53;;;20.43;;
13799;SDS011;6971;50.028;9.258;2022-12-16T11:43:01;31.03;;;20.70;;
13799;SDS011;6971;50.028;9.258;2022-12-16T11:48:30;11.00;;;8.47;;
13799;SDS011;6971;50.028;9.258;2022-12-16T11:54:02;11.13;;;8.27;;
13799;SDS011;6971;50.028;9.258;2022-12-16T12:05:20;18.93;;;13.07;;
13799;SDS011;6971;50.028;9.258;2022-12-16T12:10:49;14.97;;;10.77;;
13799;SDS011;6971;50.028;9.258;2022-12-16T12:22:00;14.13;;;10.90;;
13799;SDS011;6971;50.028;9.258;2022-12-16T12:27:42;12.50;;;9.80;;
13799;SDS011;6971;50.028;9.258;2022-12-16T12:44:40;12.47;;;8.97;;
13799;SDS011;6971;50.028;9.258;2022-12-16T12:50:11;9.93;;;8.10;;
13799;SDS011;6971;50.028;9.258;2022-12-16T13:01:04;12.37;;;8.47;;
13799;SDS011;6971;50.028;9.258;2022-12-16T13:06:26;8.23;;;7.13;;
13799;SDS011;6971;50.028;9.258;2022-12-16T13:17:24;15.33;;;12.23;;
13799;SDS011;6971;50.028;9.258;2022-12-16T13:22:43;26.27;;;19.13;;
13799;SDS011;6971;50.028;9.258;2022-12-16T13:28:04;14.67;;;8.37;;
13799;SDS011;6971;50.028;9.258;2022-12-16T13:33:25;15.50;;;10.30;;
13799;SDS011;6971;50.028;9.258;2022-12-16T13:38:47;9.73;;;7.63;;
13799;SDS011;6971;50.028;9.258;2022-12-16T13:44:08;10.63;;;8.00;;
13799;SDS011;6971;50.028;9.258;2022-12-16T13:55:02;12.37;;;8.53;;
13799;SDS011;6971;50.028;9.258;2022-12-16T14:00:35;12.20;;;9.23;;
13799;SDS011;6971;50.028;9.258;2022-12-16T14:05:57;12.47;;;8.60;;
13799;SDS011;6971;50.028;9.258;2022-12-16T14:12:06;11.20;;;8.60;;
13799;SDS011;6971;50.028;9.258;2022-12-16T14:17:07;12.20;;;9.50;;
13799;SDS011;6971;50.028;9.258;2022-12-16T14:33:51;11.73;;;8.80;;
13799;SDS011;6971;50.028;9.258;2022-12-16T14:39:21;12.03;;;9.27;;
13799;SDS011;6971;50.028;9.258;2022-12-16T14:44:46;17.43;;;11.97;;
13799;SDS011;6971;50.028;9.258;2022-12-16T14:50:23;12.63;;;9.23;;
13799;SDS011;6971;50.028;9.258;2022-12-16T14:55:45;15.53;;;11.80;;
13799;SDS011;6971;50.028;9.258;2022-12-16T15:01:14;16.20;;;10.27;;
13799;SDS011;6971;50.028;9.258;2022-12-16T15:06:36;11.67;;;8.50;;
13799;SDS011;6971;50.028;9.258;2022-12-16T15:11:59;14.17;;;9.63;;
13799;SDS011;6971;50.028;9.258;2022-12-16T15:17:26;13.80;;;8.47;;
13799;SDS011;6971;50.028;9.258;2022-12-16T15:22:49;23.47;;;15.00;;
13799;SDS011;6971;50.028;9.258;2022-12-16T15:28:22;12.47;;;8.20;;
13799;SDS011;6971;50.028;9.258;2022-12-16T15:34:15;12.20;;;8.60;;
13799;SDS011;6971;50.028;9.258;2022-12-16T15:39:39;24.87;;;15.23;;
13799;SDS011;6971;50.028;9.258;2022-12-16T15:44:59;12.23;;;8.90;;
13799;SDS011;6971;50.028;9.258;2022-12-16T15:50:20;17.20;;;10.67;;
13799;SDS011;6971;50.028;9.258;2022-12-16T15:55:52;16.33;;;9.47;;
13799;SDS011;6971;50.028;9.258;2022-12-16T16:01:15;13.00;;;8.43;;
13799;SDS011;6971;50.028;9.258;2022-12-16T16:06:51;11.43;;;8.63;;
13799;SDS011;6971;50.028;9.258;2022-12-16T16:12:12;15.27;;;9.27;;
13799;SDS011;6971;50.028;9.258;2022-12-16T16:17:33;20.23;;;12.47;;
13799;SDS011;6971;50.028;9.258;2022-12-16T16:22:52;16.13;;;10.20;;
13799;SDS011;6971;50.028;9.258;2022-12-16T16:28:12;12.77;;;10.23;;
13799;SDS011;6971;50.028;9.258;2022-12-16T16:33:31;13.17;;;8.90;;
13799;SDS011;6971;50.028;9.258;2022-12-16T16:38:50;17.70;;;9.53;;
13799;SDS011;6971;50.028;9.258;2022-12-16T16:44:10;15.67;;;9.03;;
13799;SDS011;6971;50.028;9.258;2022-12-16T16:49:33;17.37;;;10.47;;
13799;SDS011;6971;50.028;9.258;2022-12-16T16:54:55;13.57;;;9.97;;
13799;SDS011;6971;50.028;9.258;2022-12-16T17:00:15;15.83;;;10.27;;
13799;SDS011;6971;50.028;9.258;2022-12-16T17:05:34;17.00;;;10.23;;
13799;SDS011;6971;50.028;9.258;2022-12-16T17:10:54;17.97;;;9.67;;
13799;SDS011;6971;50.028;9.258;2022-12-16T17:16:14;14.10;;;9.90;;
13799;SDS011;6971;50.028;9.258;2022-12-16T17:21:53;16.13;;;10.67;;
13799;SDS011;6971;50.028;9.258;2022-12-16T17:27:14;17.70;;;11.00;;
13799;SDS011;6971;50.028;9.258;2022-12-16T17:32:43;18.23;;;11.23;;
13799;SDS011;6971;50.028;9.258;2022-12-16T17:38:02;20.37;;;11.63;;
13799;SDS011;6971;50.028;9.258;2022-12-16T17:43:21;17.43;;;10.53;;
13799;SDS011;6971;50.028;9.258;2022-12-16T17:48:40;20.10;;;11.83;;
13799;SDS011;6971;50.028;9.258;2022-12-16T17:54:00;15.33;;;11.13;;
13799;SDS011;6971;50.028;9.258;2022-12-16T17:59:19;17.17;;;10.87;;
13799;SDS011;6971;50.028;9.258;2022-12-16T18:04:38;17.90;;;10.83;;
13799;SDS011;6971;50.028;9.258;2022-12-16T18:09:58;15.50;;;10.47;;
13799;SDS011;6971;50.028;9.258;2022-12-16T18:15:17;16.33;;;10.73;;
13799;SDS011;6971;50.028;9.258;2022-12-16T18:20:36;16.43;;;10.43;;
13799;SDS011;6971;50.028;9.258;2022-12-16T18:25:57;22.37;;;11.40;;
13799;SDS011;6971;50.028;9.258;2022-12-16T18:31:20;13.57;;;9.40;;
13799;SDS011;6971;50.028;9.258;2022-12-16T18:36:39;16.57;;;11.57;;
13799;SDS011;6971;50.028;9.258;2022-12-16T18:41:58;19.50;;;11.57;;
13799;SDS011;6971;50.028;9.258;2022-12-16T18:47:17;18.10;;;10.97;;
13799;SDS011;6971;50.028;9.258;2022-12-16T18:52:36;17.03;;;10.37;;
13799;SDS011;6971;50.028;9.258;2022-12-16T18:57:55;21.30;;;11.43;;
13799;SDS011;6971;50.028;9.258;2022-12-16T19:03:15;18.17;;;11.10;;
13799;SDS011;6971;50.028;9.258;2022-12-16T19:08:34;17.37;;;11.37;;
13799;SDS011;6971;50.028;9.258;2022-12-16T19:13:54;19.40;;;12.10;;
13799;SDS011;6971;50.028;9.258;2022-12-16T19:19:13;21.83;;;12.73;;
13799;SDS011;6971;50.028;9.258;2022-12-16T19:24:33;24.03;;;12.17;;
13799;SDS011;6971;50.028;9.258;2022-12-16T19:29:52;28.87;;;13.53;;
13799;SDS011;6971;50.028;9.258;2022-12-16T19:35:11;24.13;;;13.93;;
13799;SDS011;6971;50.028;9.258;2022-12-16T19:40:34;22.03;;;13.50;;
13799;SDS011;6971;50.028;9.258;2022-12-16T19:45:54;21.67;;;13.23;;
13799;SDS011;6971;50.028;9.258;2022-12-16T19:51:13;28.90;;;15.83;;
13799;SDS011;6971;50.028;9.258;2022-12-16T19:56:32;29.17;;;15.87;;
13799;SDS011;6971;50.028;9.258;2022-12-16T20:01:51;24.63;;;13.40;;
13799;SDS011;6971;50.028;9.258;2022-12-16T20:07:13;20.47;;;12.80;;
13799;SDS011;6971;50.028;9.258;2022-12-16T20:12:32;22.93;;;13.10;;
13799;SDS011;6971;50.028;9.258;2022-12-16T20:17:51;27.60;;;15.50;;
13799;SDS011;6971;50.028;9.258;2022-12-16T20:23:11;23.00;;;13.37;;
13799;SDS011;6971;50.028;9.258;2022-12-16T20:28:30;23.00;;;13.63;;
13799;SDS011;6971;50.028;9.258;2022-12-16T20:33:55;25.73;;;13.40;;
13799;SDS011;6971;50.028;9.258;2022-12-16T20:39:15;25.60;;;13.97;;
13799;SDS011;6971;50.028;9.258;2022-12-16T20:44:34;23.33;;;13.87;;
13799;SDS011;6971;50.028;9.258;2022-12-16T20:49:56;24.13;;;14.90;;
13799;SDS011;6971;50.028;9.258;2022-12-16T20:55:15;21.73;;;13.23;;
13799;SDS011;6971;50.028;9.258;2022-12-16T21:00:35;21.87;;;13.10;;
13799;SDS011;6971;50.028;9.258;2022-12-16T21:05:55;23.57;;;13.93;;
13799;SDS011;6971;50.028;9.258;2022-12-16T21:11:14;22.17;;;13.00;;
13799;SDS011;6971;50.028;9.258;2022-12-16T21:16:34;21.30;;;13.70;;
13799;SDS011;6971;50.028;9.258;2022-12-16T21:21:53;19.57;;;13.60;;
13799;SDS011;6971;50.028;9.258;2022-12-16T21:27:13;19.27;;;12.23;;
13799;SDS011;6971;50.028;9.258;2022-12-16T21:32:33;22.03;;;13.20;;
13799;SDS011;6971;50.028;9.258;2022-12-16T21:37:52;23.60;;;13.57;;
13799;SDS011;6971;50.028;9.258;2022-12-16T21:43:14;21.20;;;12.93;;
13799;SDS011;6971;50.028;9.258;2022-12-16T21:48:33;22.80;;;11.97;;
13799;SDS011;6971;50.028;9.258;2022-12-16T21:53:53;19.23;;;11.77;;
13799;SDS011;6971;50.028;9.258;2022-12-16T21:59:12;19.20;;;10.70;;
13799;SDS011;6971;50.028;9.258;2022-12-16T22:04:31;19.10;;;10.60;;
13799;SDS011;6971;50.028;9.258;2022-12-16T22:09:51;18.67;;;10.97;;
13799;SDS011;6971;50.028;9.258;2022-12-16T22:15:10;16.40;;;10.73;;
13799;SDS011;6971;50.028;9.258;2022-12-16T22:20:30;19.00;;;11.90;;
13799;SDS011;6971;50.028;9.258;2022-12-16T22:25:54;17.40;;;11.13;;
13799;SDS011;6971;50.028;9.258;2022-12-16T22:31:14;19.20;;;12.63;;
13799;SDS011;6971;50.028;9.258;2022-12-16T22:36:33;22.50;;;13.13;;
13799;SDS011;6971;50.028;9.258;2022-12-16T22:41:52;22.80;;;13.70;;
13799;SDS011;6971;50.028;9.258;2022-12-16T22:47:12;20.70;;;12.37;;
13799;SDS011;6971;50.028;9.258;2022-12-16T22:52:31;21.77;;;12.70;;
13799;SDS011;6971;50.028;9.258;2022-12-16T22:57:51;19.83;;;13.33;;
13799;SDS011;6971;50.028;9.258;2022-12-16T23:03:14;18.70;;;10.93;;
13799;SDS011;6971;50.028;9.258;2022-12-16T23:08:35;21.80;;;12.00;;
13799;SDS011;6971;50.028;9.258;2022-12-16T23:13:54;24.50;;;13.37;;
13799;SDS011;6971;50.028;9.258;2022-12-16T23:19:13;18.37;;;11.73;;
13799;SDS011;6971;50.028;9.258;2022-12-16T23:24:33;19.87;;;12.27;;
13799;SDS011;6971;50.028;9.258;2022-12-16T23:29:52;22.33;;;13.03;;
13799;SDS011;6971;50.028;9.258;2022-12-16T23:35:12;27.03;;;13.37;;
13799;SDS011;6971;50.028;9.258;2022-12-16T23:40:31;20.47;;;11.73;;
13799;SDS011;6971;50.028;9.258;2022-12-16T23:45:50;21.00;;;12.03;;
13799;SDS011;6971;50.028;9.258;2022-12-16T23:51:10;20.77;;;11.73;;
13799;SDS011;6971;50.028;9.258;2022-12-16T23:56:29;15.30;;;10.20;;
